createdAt,value
2023-07-28T00:02:30.645Z,65.90210076190766
2023-07-28T00:05:26.170Z,65.67485745995886
2023-07-28T00:08:21.721Z,64.44776284752736
2023-07-28T00:11:17.292Z,64.44908861674392
2023-07-28T00:14:12.887Z,64.67411624437423
2023-07-28T00:17:08.390Z,64.36777099509206
2023-07-28T00:20:04.944Z,64.58892796017808
2023-07-28T00:23:00.549Z,64.96911572810154
2023-07-28T00:25:56.082Z,65.24604631247732
2023-07-28T00:28:51.641Z,64.96905478493854
2023-07-28T00:31:47.193Z,65.82304463615655
2023-07-28T00:34:42.782Z,65.44388510526102
2023-07-28T00:37:38.316Z,65.90472229748002
2023-07-28T00:40:34.869Z,65.80929731730006
2023-07-28T00:43:30.460Z,65.26154054313584
2023-07-28T00:46:27.071Z,64.75983223898365
2023-07-28T00:49:22.529Z,64.73892873665888
2023-07-28T00:52:19.140Z,64.49016658180223
2023-07-28T00:55:14.708Z,64.24861869428362
2023-07-28T00:58:11.225Z,65.07265152801565
2023-07-28T01:01:06.795Z,66.92122856192051
2023-07-28T01:04:04.365Z,65.93960435795283
2023-07-28T01:07:09.888Z,65.41972258056782
2023-07-28T01:10:11.419Z,65.83036075448085
2023-07-28T01:13:07.035Z,66.72742119201153
2023-07-28T01:16:02.662Z,67.46539895575297
2023-07-28T01:18:58.153Z,66.75064406318809
2023-07-28T01:22:01.685Z,66.75304677636741
2023-07-28T01:25:07.225Z,66.56506628371216
2023-07-28T01:28:03.821Z,67.71946377432327
2023-07-28T01:31:00.347Z,67.0494238862298
2023-07-28T01:33:55.876Z,69.52144050800065
2023-07-28T01:36:51.440Z,68.6582416905222
2023-07-28T01:39:47.014Z,67.04950218886479
2023-07-28T01:42:42.573Z,67.35938968207105
2023-07-28T01:45:40.157Z,67.38969222001023
2023-07-28T01:48:35.754Z,68.14453084846124
2023-07-28T01:51:31.273Z,68.34466770961924
2023-07-28T01:54:26.805Z,67.4873349407044
2023-07-28T01:57:22.378Z,67.48311274801743
2023-07-28T02:00:18.979Z,66.04927708180227
2023-07-28T02:03:14.522Z,67.04394261686248
2023-07-28T02:06:10.041Z,66.56283644426804
2023-07-28T02:09:05.637Z,66.34217738599094
2023-07-28T02:12:01.197Z,66.66910608575996
2023-07-28T02:14:56.764Z,66.49977554504196
2023-07-28T02:17:52.342Z,67.89270380079881
2023-07-28T02:20:48.893Z,68.49674702967532
2023-07-28T02:23:44.445Z,67.66891687795669
2023-07-28T02:26:39.991Z,67.50585050374524
2023-07-28T02:29:35.555Z,69.7587869867167
2023-07-28T02:32:32.148Z,71.60306120773474
2023-07-28T02:35:27.687Z,71.11373242756542
2023-07-28T02:38:23.267Z,70.25490991550974
2023-07-28T02:41:18.834Z,69.77021921829272
2023-07-28T02:44:14.375Z,69.86016259180984
2023-07-28T02:47:09.964Z,70.47667146468497
2023-07-28T02:50:06.494Z,70.00796284179077
2023-07-28T02:53:02.054Z,70.35248075709619
2023-07-28T02:55:58.607Z,71.68544482937843
2023-07-28T02:58:54.174Z,70.10354982895117
2023-07-28T03:01:52.842Z,69.64869626466903
2023-07-28T03:04:48.328Z,68.53466949427482
2023-07-28T03:07:43.831Z,70.77946147739664
2023-07-28T03:10:39.416Z,71.00248334325161
2023-07-28T03:13:35.014Z,71.43163921857197
2023-07-28T03:16:30.566Z,72.51033515248996
2023-07-28T03:19:26.072Z,72.93440410309202
2023-07-28T03:22:21.634Z,73.55876603461193
2023-07-28T03:25:19.239Z,73.45953177058907
2023-07-28T03:28:14.826Z,72.37346073102569
2023-07-28T03:31:10.335Z,71.27533696038797
2023-07-28T03:34:05.924Z,70.17807159626099
2023-07-28T03:37:01.476Z,70.98462375703215
2023-07-28T03:39:57.065Z,70.73703490634931
2023-07-28T03:42:52.606Z,70.11675034859151
2023-07-28T03:45:49.166Z,70.74698660343402
2023-07-28T03:48:44.702Z,71.24353712757151
2023-07-28T03:51:40.268Z,74.42899046635907
2023-07-28T03:54:35.828Z,69.65165079591962
2023-07-28T03:57:31.413Z,70.82275118024602
2023-07-28T04:00:26.984Z,71.20795391499388
2023-07-28T04:03:22.486Z,69.6787698354729
2023-07-28T04:06:18.086Z,69.63758733084293
2023-07-28T04:09:14.614Z,67.86290476321756
2023-07-28T04:12:10.204Z,67.77073556601525
2023-07-28T04:15:06.782Z,68.4140335622988
2023-07-28T04:18:02.368Z,68.70560590180949
2023-07-28T04:20:57.861Z,67.31001769686475
2023-07-28T04:23:53.416Z,68.57381968550915
2023-07-28T04:26:50.218Z,67.22935769331366
2023-07-28T04:29:45.551Z,65.83363437853228
2023-07-28T04:32:41.143Z,64.43496722011999
2023-07-28T04:35:37.684Z,64.84818826682383
2023-07-28T04:38:33.255Z,64.30547419741157
2023-07-28T04:41:29.812Z,63.75401192121743
2023-07-28T04:44:25.357Z,63.64275007853063
2023-07-28T04:47:20.954Z,63.37409131066673
2023-07-28T04:50:16.468Z,63.914970605719915
2023-07-28T04:53:12.065Z,64.1993522969919
2023-07-28T04:56:08.630Z,64.25766079507441
2023-07-28T04:59:07.220Z,62.75381645258265
2023-07-28T05:02:02.739Z,63.472830950775545
2023-07-28T05:04:58.274Z,63.13745739235527
2023-07-28T05:07:53.857Z,63.321424967203924
2023-07-28T05:10:49.460Z,62.29354246561733
2023-07-28T05:13:44.999Z,62.07381089738433
2023-07-28T05:16:40.533Z,62.367756451343524
2023-07-28T05:19:38.094Z,61.73238836278477
2023-07-28T05:22:33.668Z,59.08667268635559
2023-07-28T05:25:29.236Z,60.8450267645207
2023-07-28T05:28:25.874Z,59.97153514991846
2023-07-28T05:31:21.453Z,60.49654196915184
2023-07-28T05:34:16.892Z,58.79549477194252
2023-07-28T05:37:12.481Z,58.43444700466247
2023-07-28T05:40:09.085Z,57.35994044679546
2023-07-28T05:43:04.607Z,57.790859203746976
2023-07-28T05:46:01.169Z,58.09265149385867
2023-07-28T05:48:58.704Z,57.09292410431503
2023-07-28T05:51:54.227Z,55.78553364962775
2023-07-28T05:54:49.817Z,53.93423048013215
2023-07-28T05:57:45.369Z,54.816923594398304
2023-07-28T06:00:42.983Z,54.589267659404854
2023-07-28T06:03:38.595Z,53.55541191640021
2023-07-28T06:06:35.040Z,54.646147283851576
2023-07-28T06:09:30.663Z,53.399339585494
2023-07-28T06:12:26.205Z,52.2881761676016
2023-07-28T06:15:21.762Z,52.918110363597435
2023-07-28T06:18:17.295Z,52.7305259886021
2023-07-28T06:21:14.869Z,52.46152336598988
2023-07-28T06:24:10.446Z,51.160176027671774
2023-07-28T06:27:09.011Z,50.41368048853985
2023-07-28T06:30:06.559Z,50.148396220393685
2023-07-28T06:33:04.139Z,50.57606619637752
2023-07-28T06:36:00.649Z,49.40584712341392
2023-07-28T06:38:57.188Z,50.35160211915771
2023-07-28T06:41:52.781Z,51.0025788141938
2023-07-28T06:44:48.381Z,50.2766514850879
2023-07-28T06:47:44.880Z,51.44235312187601
2023-07-28T06:50:41.431Z,49.212010371380494
2023-07-28T06:53:37.018Z,48.07199152659227
2023-07-28T06:56:32.585Z,47.89943990613028
2023-07-28T06:59:28.104Z,48.71111592731103
2023-07-28T07:02:24.707Z,47.411644309851525
2023-07-28T07:05:20.289Z,46.01602314690624
2023-07-28T07:08:15.810Z,46.567997306977475
2023-07-28T07:11:12.385Z,47.3363563926776
2023-07-28T07:14:08.924Z,47.04050328118094
2023-07-28T07:17:05.515Z,44.61792027388182
2023-07-28T07:20:01.062Z,45.61745495069118
2023-07-28T07:22:58.291Z,45.3993463576062
2023-07-28T07:25:55.224Z,44.568908724402725
2023-07-28T07:28:50.744Z,44.66222513250701
2023-07-28T07:31:46.285Z,43.92723549932898
2023-07-28T07:34:41.824Z,44.78170947200238
2023-07-28T07:37:38.453Z,42.22805404074883
2023-07-28T07:40:34.005Z,42.51329036898005
2023-07-28T07:43:29.553Z,43.169522158213965
2023-07-28T07:46:27.104Z,42.986967367390285
2023-07-28T07:49:23.654Z,42.838884651505744
2023-07-28T07:52:19.232Z,42.60085898746321
2023-07-28T07:55:14.824Z,41.13652698525992
2023-07-28T07:58:10.386Z,41.6382925293913
2023-07-28T08:01:07.990Z,40.885581878272355
2023-07-28T08:04:05.515Z,41.644067513302
2023-07-28T08:07:02.051Z,41.06814342859287
2023-07-28T08:09:57.608Z,40.72592048103761
2023-07-28T08:12:53.152Z,40.006984283451246
2023-07-28T08:15:49.746Z,40.48059636027812
2023-07-28T08:18:47.275Z,40.29801175604226
2023-07-28T08:21:43.849Z,40.064029320895116
2023-07-28T08:24:39.406Z,39.607119019203225
2023-07-28T08:27:35.947Z,40.48111437359465
2023-07-28T08:30:32.516Z,39.66360929744905
2023-07-28T08:33:28.035Z,38.91512877068205
2023-07-28T08:36:23.615Z,38.98948977929115
2023-07-28T08:39:19.237Z,38.284879435277674
2023-07-28T08:42:14.764Z,38.119043585029814
2023-07-28T08:45:10.356Z,38.737715293920814
2023-07-28T08:48:07.104Z,37.86154533519048
2023-07-28T08:51:03.451Z,38.71880652438052
2023-07-28T08:53:59.007Z,37.491408839480755
2023-07-28T08:56:58.528Z,36.35053045922133
2023-07-28T08:59:55.116Z,35.80813833245314
2023-07-28T09:02:51.735Z,35.273038793845124
2023-07-28T09:05:50.234Z,34.37582959669651
2023-07-28T09:08:47.762Z,36.3456184295258
2023-07-28T09:11:47.346Z,34.49734859947148
2023-07-28T09:14:45.882Z,34.09125110513729
2023-07-28T09:17:43.459Z,34.41823940089243
2023-07-28T09:20:41.981Z,33.84030468335545
2023-07-28T09:23:40.540Z,34.57313551930767
2023-07-28T09:26:39.195Z,33.463779302958116
2023-07-28T09:29:41.735Z,33.44526901358712
2023-07-28T09:32:39.321Z,33.38971329833773
2023-07-28T09:35:48.743Z,33.38175640389369
2023-07-28T09:38:44.271Z,32.05490808795057
2023-07-28T09:41:45.810Z,32.29687386520032
2023-07-28T09:44:41.449Z,33.20497501524019
2023-07-28T09:47:38.981Z,32.26883592163371
2023-07-28T09:50:38.521Z,31.496934284273944
2023-07-28T09:53:37.087Z,31.511660697582915
2023-07-28T09:56:33.644Z,31.49427397472336
2023-07-28T09:59:33.199Z,31.72302579442291
2023-07-28T10:02:29.826Z,31.527634652565762
2023-07-28T10:05:27.298Z,30.575669963432393
2023-07-28T10:08:26.650Z,31.22558989445567
2023-07-28T10:11:26.416Z,30.14517974856735
2023-07-28T10:14:28.021Z,31.326565876485585
2023-07-28T10:17:28.484Z,32.362903428842955
2023-07-28T10:20:30.057Z,29.83467342908367
2023-07-28T10:23:25.570Z,30.99810894874178
2023-07-28T10:26:36.332Z,29.97356815390266
2023-07-28T10:29:38.681Z,30.843811759048908
2023-07-28T10:32:38.243Z,29.664325499968935
2023-07-28T10:35:44.753Z,29.913615517575494
2023-07-28T10:38:55.311Z,29.800751618179188
2023-07-28T10:44:56.376Z,29.829015779657695
2023-07-28T10:47:53.985Z,30.979616851597754
2023-07-28T10:50:51.538Z,30.18657184726717
2023-07-28T10:53:50.033Z,29.77158186379356
2023-07-28T10:56:45.623Z,29.559329212614745
2023-07-28T10:59:43.188Z,29.074940758742947
2023-07-28T11:02:43.807Z,29.259285807912537
2023-07-28T11:05:43.307Z,29.468520231517886
2023-07-28T11:08:39.846Z,29.626390449752275
2023-07-28T11:11:42.709Z,28.591774693590988
2023-07-28T11:14:41.926Z,28.71516825508242
2023-07-28T11:17:40.570Z,28.716209648561392
2023-07-28T11:20:37.055Z,28.703333469781732
2023-07-28T11:23:34.601Z,27.53252725673274
2023-07-28T11:26:31.165Z,29.2954742756673
2023-07-28T11:29:27.697Z,28.253886196552273
2023-07-28T11:32:23.291Z,28.67353794935453
2023-07-28T11:35:20.854Z,27.561991937750477
2023-07-28T11:38:18.424Z,27.719286480174286
2023-07-28T11:41:17.349Z,27.11949201106219
2023-07-28T11:44:21.522Z,27.15262746526155
2023-07-28T11:47:19.056Z,26.571985239986084
2023-07-28T11:50:23.586Z,26.224322614923267
2023-07-28T11:53:21.140Z,25.897036998262333
2023-07-28T11:56:16.666Z,26.071043441835027
2023-07-28T11:59:15.236Z,26.156473219556453
2023-07-28T12:05:21.358Z,26.120986287075752
2023-07-28T12:08:25.887Z,24.95198884237374
2023-07-28T12:20:37.001Z,23.68025959409688
2023-07-28T12:26:35.278Z,23.673938498617034
2023-07-28T12:29:31.788Z,23.388628888770686
2023-07-28T12:32:35.970Z,22.40277326483044
2023-07-28T12:41:41.221Z,23.597744704957478
2023-07-28T12:47:37.712Z,22.838662620750068
2023-07-28T12:50:41.564Z,23.919259711517025
2023-07-28T12:53:32.130Z,23.709791744914085
2023-07-28T12:59:26.578Z,23.375195005773865
2023-07-28T13:02:21.823Z,21.876131973598266
2023-07-28T13:05:18.442Z,22.802053645933196
2023-07-28T13:08:14.920Z,23.046013349067817
2023-07-28T13:14:11.051Z,22.44241440876598
2023-07-28T13:17:07.604Z,22.899659636232474
2023-07-28T13:20:05.106Z,22.899220608493117
2023-07-28T13:23:00.740Z,24.314348121239526
2023-07-28T13:25:56.289Z,23.66068410270031
2023-07-28T13:28:52.804Z,23.603386405849122
2023-07-28T13:31:49.416Z,23.442199897914026
2023-07-28T13:34:45.978Z,22.79382671042479
2023-07-28T13:37:42.565Z,22.820074357233807
2023-07-28T13:40:39.091Z,21.89932117736827
2023-07-28T13:43:38.660Z,22.52367173644503
2023-07-28T13:46:34.181Z,23.606083776089843
2023-07-28T13:49:29.797Z,22.58035052833413
2023-07-28T13:52:25.776Z,21.698767868543037
2023-07-28T13:55:40.910Z,22.314730380075957
2023-07-28T13:58:23.433Z,22.644471714265354
2023-07-28T14:01:19.043Z,21.954231283150357
2023-07-28T14:04:15.550Z,20.91907299553173
2023-07-28T14:07:11.143Z,22.148715737918632
2023-07-28T14:10:09.678Z,22.28025847990547
2023-07-28T14:13:05.326Z,22.047341045974463
2023-07-28T14:16:00.846Z,22.567921723387
2023-07-28T14:18:56.310Z,22.81294671709764
2023-07-28T14:21:52.912Z,22.06296870681794
2023-07-28T14:24:49.475Z,21.974140176945976
2023-07-28T14:27:45.026Z,20.38652808471911
2023-07-28T14:30:46.648Z,20.086632508290595
2023-07-28T14:33:42.155Z,20.766681952747245
2023-07-28T14:36:37.714Z,20.059862013063988
2023-07-28T14:39:33.240Z,20.587050326980258
2023-07-28T14:42:28.843Z,21.774172410474147
2023-07-28T14:45:25.377Z,20.94132166297319
2023-07-28T14:48:20.954Z,20.82956250916155
2023-07-28T14:51:16.541Z,20.183702791727047
2023-07-28T14:54:13.037Z,20.56300409230145
2023-07-28T14:57:28.778Z,21.219518343900102
2023-07-28T15:00:15.174Z,21.31983964604386
2023-07-28T15:03:10.796Z,21.366455960928818
2023-07-28T15:06:06.571Z,20.850447179359733
2023-07-28T15:09:01.893Z,20.922466408696373
2023-07-28T15:11:58.409Z,21.055019462977835
2023-07-28T15:14:53.988Z,21.07943730354472
2023-07-28T15:17:49.619Z,22.079016297350712
2023-07-28T15:20:46.107Z,22.490565656315816
2023-07-28T15:23:41.633Z,22.596475226807687
2023-07-28T15:26:39.273Z,21.52989032003836
2023-07-28T15:29:35.744Z,19.71331963367126
2023-07-28T15:32:32.352Z,20.365570078659506
2023-07-28T15:35:27.889Z,21.72424974098959
2023-07-28T15:38:24.473Z,22.69416475146818
2023-07-28T15:41:20.032Z,21.75201545952277
2023-07-28T15:44:16.582Z,21.457884597321414
2023-07-28T15:47:12.130Z,20.862109474150937
2023-07-28T15:50:08.749Z,21.416826945365646
2023-07-28T15:53:05.250Z,19.89242293104266
2023-07-28T15:56:00.767Z,20.15084943213034
2023-07-28T15:58:56.388Z,21.33130446250201
2023-07-28T16:01:51.993Z,20.461413045263708
2023-07-28T16:04:47.531Z,21.42348636151013
2023-07-28T16:07:43.066Z,21.37949370012565
2023-07-28T16:10:41.743Z,21.61088464481011
2023-07-28T16:13:37.166Z,21.19885282980318
2023-07-28T16:16:32.806Z,22.197605756740863
2023-07-28T16:19:28.304Z,20.105613941575434
2023-07-28T16:22:26.850Z,20.580450959873243
2023-07-28T16:25:24.462Z,21.360667417599306
2023-07-28T16:28:21.012Z,19.861068760090614
2023-07-28T16:31:16.598Z,18.950876556239027
2023-07-28T16:34:12.112Z,20.703781201709464
2023-07-28T16:37:07.670Z,20.674068207355212
2023-07-28T16:40:04.236Z,20.287252855293143
2023-07-28T16:42:59.809Z,20.225919221764617
2023-07-28T16:45:55.391Z,22.51636766177332
2023-07-28T16:48:51.941Z,22.011611096323676
2023-07-28T16:51:48.446Z,20.885072390928695
2023-07-28T16:54:44.001Z,21.80868748943201
2023-07-28T16:57:40.569Z,21.757406938860886
2023-07-28T17:00:37.173Z,22.012405982997514
2023-07-28T17:03:32.793Z,25.17089612229035
2023-07-28T17:06:28.259Z,27.11810431936169
2023-07-28T17:09:25.822Z,28.858593138513093
2023-07-28T17:12:21.396Z,29.586634745124112
2023-07-28T17:15:26.413Z,30.311316347852465
2023-07-28T17:18:17.566Z,30.952125634929402
2023-07-28T17:21:13.052Z,32.29994497614129
2023-07-28T17:24:08.610Z,32.49798965132658
2023-07-28T17:27:06.205Z,32.720346355762615
2023-07-28T17:30:01.768Z,33.408157634424164
2023-07-28T17:32:58.328Z,33.711654155482584
2023-07-28T17:35:53.866Z,34.61515725187908
2023-07-28T17:38:49.432Z,35.423647048225746
2023-07-28T17:41:45.023Z,34.41422500506854
2023-07-28T17:44:40.525Z,36.43554825914802
2023-07-28T17:47:38.139Z,37.241502318556606
2023-07-28T17:50:33.637Z,37.03160767730041
2023-07-28T17:53:31.256Z,37.333154564182536
2023-07-28T17:56:26.768Z,37.88934542259896
2023-07-28T17:59:23.336Z,38.5596936881462
2023-07-28T18:02:18.939Z,38.95291312405972
2023-07-28T18:05:14.475Z,40.11233137560993
2023-07-28T18:08:13.065Z,40.74015226900044
2023-07-28T18:11:08.591Z,41.53390507422508
2023-07-28T18:14:05.180Z,42.20016211413462
2023-07-28T18:17:02.830Z,42.412299230466466
2023-07-28T18:19:59.245Z,43.278676112270496
2023-07-28T18:22:54.843Z,43.99469580912568
2023-07-28T18:25:50.393Z,44.47484215807985
2023-07-28T18:28:45.954Z,44.874437583955434
2023-07-28T18:31:41.515Z,45.565848570602085
2023-07-28T18:34:37.098Z,45.90841578747703
2023-07-28T18:37:32.638Z,46.90184472648718
2023-07-28T18:40:30.542Z,47.46582984889725
2023-07-28T18:43:27.773Z,48.433490431598244
2023-07-28T18:46:23.302Z,49.54759453440421
2023-07-28T18:49:18.892Z,50.170803474949565
2023-07-28T18:52:14.454Z,51.14122722194168
2023-07-28T18:55:10.003Z,51.48197956609066
2023-07-28T18:58:05.550Z,51.50958301589963
2023-07-28T19:01:01.092Z,52.269470846497875
2023-07-28T19:03:57.769Z,52.84235125496453
2023-07-28T19:06:53.231Z,53.77678946581802
2023-07-28T19:09:49.797Z,54.80395439447081
2023-07-28T19:12:45.372Z,55.328853539581644
2023-07-28T19:15:47.506Z,54.92048989900055
2023-07-28T19:18:43.492Z,54.922505239238006
2023-07-28T19:21:39.073Z,55.12968553693246
2023-07-28T19:24:34.600Z,55.39313727884581
2023-07-28T19:27:32.308Z,55.514973992835095
2023-07-28T19:30:27.739Z,55.889661121773614
2023-07-28T19:33:23.258Z,56.33253453154531
2023-07-28T19:36:19.808Z,56.724813365569034
2023-07-28T19:39:15.403Z,57.42537347182397
2023-07-28T19:42:10.960Z,57.84933771927564
2023-07-28T19:45:07.546Z,57.80245292108269
2023-07-28T19:48:04.181Z,58.044022281924065
2023-07-28T19:51:00.644Z,58.20090015168713
2023-07-28T19:54:00.177Z,58.23605224957734
2023-07-28T19:56:57.744Z,58.94399736279632
2023-07-28T19:59:53.297Z,59.32852826906627
2023-07-28T20:02:48.944Z,59.970439497723575
2023-07-28T20:05:45.441Z,60.27404814373333
2023-07-28T20:08:41.021Z,61.29168617448153
2023-07-28T20:11:36.548Z,60.90039925761452
2023-07-28T20:14:32.115Z,61.012336708053475
2023-07-28T20:17:29.691Z,62.129305507689274
2023-07-28T20:20:25.216Z,62.54304519288707
2023-07-28T20:23:29.767Z,62.25794773145361
2023-07-28T20:26:26.311Z,62.094712366724295
2023-07-28T20:29:21.957Z,61.924918079188636
2023-07-28T20:32:17.494Z,62.70631228327348
2023-07-28T20:35:15.075Z,62.55905056316424
2023-07-28T20:38:10.533Z,63.769328962277804
2023-07-28T20:41:07.133Z,64.2723530107386
2023-07-28T20:44:04.691Z,64.48714188520083
2023-07-28T20:47:05.275Z,64.44596628563033
2023-07-28T20:50:01.809Z,64.25291693979449
2023-07-28T20:52:58.355Z,64.55031483711839
2023-07-28T20:55:53.956Z,64.44076111897903
2023-07-28T20:58:50.516Z,65.28426050543821
2023-07-28T21:01:46.025Z,66.09794602992187
2023-07-28T21:04:42.617Z,66.53280901203603
2023-07-28T21:07:40.179Z,66.60112367943698
2023-07-28T21:10:36.738Z,66.31877714648607
2023-07-28T21:13:32.284Z,65.75214441685631
2023-07-28T21:16:27.951Z,65.83857997175723
2023-07-28T21:19:23.398Z,65.80522519738888
2023-07-28T21:22:19.991Z,65.59096406304222
2023-07-28T21:25:15.510Z,65.4598834542443
2023-07-28T21:28:12.103Z,66.07743529216292
2023-07-28T21:31:07.691Z,66.01629644837558
2023-07-28T21:34:06.215Z,66.25758407966912
2023-07-28T21:37:01.744Z,66.72632778608397
2023-07-28T21:39:58.295Z,65.61235953418482
2023-07-28T21:42:53.878Z,66.28756412262949
2023-07-28T21:45:50.473Z,65.88913199195179
2023-07-28T21:48:47.031Z,66.57675753928916
2023-07-28T21:51:42.568Z,66.60050986677379
2023-07-28T21:54:38.104Z,66.58560917677303
2023-07-28T21:57:33.680Z,67.38401005481151
2023-07-28T22:00:29.207Z,66.51156527700537
2023-07-28T22:03:24.875Z,66.74035444472939
2023-07-28T22:06:20.397Z,66.79261327794023
2023-07-28T22:09:16.997Z,66.40945096624856
2023-07-28T22:12:12.502Z,66.91906498453156
2023-07-28T22:15:09.083Z,67.01583260192177
2023-07-28T22:18:04.639Z,67.53119033894559
2023-07-28T22:21:02.212Z,68.38876556624786
2023-07-28T22:23:57.769Z,69.52681947544465
2023-07-28T22:26:53.272Z,69.3119757842239
2023-07-28T22:29:51.877Z,69.02235084742833
2023-07-28T22:32:47.443Z,67.96041651096759
2023-07-28T22:35:42.991Z,67.54341529916044
2023-07-28T22:38:39.529Z,67.7284649000082
2023-07-28T22:41:37.430Z,68.89408086004099
2023-07-28T22:44:34.654Z,68.21502453368804
2023-07-28T22:47:30.232Z,68.10265802183466
2023-07-28T22:50:26.770Z,67.27706994009172
2023-07-28T22:53:22.305Z,67.01787112764914
2023-07-28T22:56:17.908Z,67.40153871126616
2023-07-28T22:59:13.452Z,66.98114069178659
2023-07-28T23:02:10.060Z,65.17001149634324
2023-07-28T23:05:09.564Z,63.780420631646756
2023-07-28T23:08:06.127Z,63.4424460794799
2023-07-28T23:11:01.691Z,64.7644105074974
2023-07-28T23:13:57.200Z,64.71301752989802
2023-07-28T23:16:53.885Z,65.44972362622654
2023-07-28T23:19:50.373Z,65.88618565019223
2023-07-28T23:22:45.963Z,64.58360530361777
2023-07-28T23:25:41.541Z,64.64789531555358
2023-07-28T23:28:37.084Z,66.67750123447537
2023-07-28T23:31:43.640Z,66.36123094624352
2023-07-28T23:34:39.150Z,65.01883416829693
2023-07-28T23:37:34.747Z,64.33972487056371
2023-07-28T23:40:30.264Z,66.33017918324246
2023-07-28T23:43:25.845Z,67.39463314269587
2023-07-28T23:46:25.433Z,65.90431975128999
2023-07-28T23:49:20.926Z,64.93754224972254
2023-07-28T23:52:18.545Z,64.83773100487684
2023-07-28T23:55:14.053Z,64.42267705570586
2023-07-28T23:58:10.622Z,64.0406773559196
